»·PEaware :: N759ZT KSNA-KBUR

N759ZT :: KSNA-KBUR

FLIGHT INFORMATION

Flight Status: Arrived
Operator: Privately registered:
United States
More flights under this callsign
Pilot: John A. (17550)
Aircraft: CESSNA T210 TURBO CENTURION
(T210)
More flights by this aircraft type
Origin: KSNA John Wayne-Orange Co
United States
Destination: KBUR Bob Hope-Burbank
United States
More flights between these airports :: More routes between these airports
Route: +SLI V23 POPPR SMO125R SMO SMO311R SILEX
File this flight plan on PilotEdge
Remarks: I-3
Altitude:
(Current/Filed)
4,000ft
Speed:
(Current/Filed)
145kts
Departed: 14-Apr-18 04:24 PM
Arrived: 14-Apr-18 04:59 PM
Distance/Time
Traveled:
40nm/0:35
Distance/Time
To Go:
Arrived

Flight Plot

Page will automatically refresh every two minutes.


Map Options




Map Legend


Flown Route
Filed Route
Departure Airport
Arrival Airport
Navaid (VOR, NDB)
Fix

Horizontal Profiles

Position Reports

Time Latitude Longitude Heading Altitude Ground
Speed
14-Apr-18 15:46 33.673813 -117.872191 118 60ft 0kts
14-Apr-18 15:47 33.673813 -117.872191 118 60ft 0kts
14-Apr-18 15:48 33.673813 -117.872191 118 60ft 0kts
14-Apr-18 15:49 33.673813 -117.872191 118 60ft 0kts
14-Apr-18 15:50 33.673813 -117.872191 118 60ft 0kts
14-Apr-18 15:51 33.673813 -117.872191 118 60ft 0kts
14-Apr-18 15:52 33.673813 -117.872191 118 60ft 0kts
14-Apr-18 15:53 33.673813 -117.872191 118 60ft 0kts
14-Apr-18 15:54 33.673813 -117.872191 118 60ft 0kts
14-Apr-18 15:55 33.673813 -117.872191 118 60ft 0kts
14-Apr-18 15:56 33.673813 -117.872191 118 60ft 0kts
14-Apr-18 15:57 33.673813 -117.872191 118 60ft 0kts
14-Apr-18 15:58 33.673813 -117.872191 118 60ft 0kts
14-Apr-18 15:59 33.673813 -117.872191 118 60ft 0kts
14-Apr-18 16:00 33.673813 -117.872191 118 60ft 0kts
14-Apr-18 16:01 33.673813 -117.872191 118 60ft 0kts
14-Apr-18 16:02 33.673813 -117.872191 118 60ft 0kts
14-Apr-18 16:03 33.673813 -117.872191 118 60ft 0kts
14-Apr-18 16:04 33.673813 -117.872191 118 60ft 0kts
14-Apr-18 16:05 33.673813 -117.872191 118 60ft 0kts
14-Apr-18 16:06 33.673813 -117.872191 118 60ft 0kts
14-Apr-18 16:07 33.673813 -117.872191 118 60ft 0kts
14-Apr-18 16:08 33.673813 -117.872191 118 60ft 0kts
14-Apr-18 16:09 33.673813 -117.872191 118 60ft 0kts
14-Apr-18 16:10 33.673813 -117.872191 118 60ft 0kts
14-Apr-18 16:11 33.673813 -117.872191 118 60ft 0kts
14-Apr-18 16:12 33.673813 -117.872191 118 60ft 0kts
14-Apr-18 16:13 33.673813 -117.872191 118 60ft 0kts
14-Apr-18 16:14 33.673813 -117.872191 118 60ft 0kts
14-Apr-18 16:15 33.673813 -117.872191 118 60ft 0kts
14-Apr-18 16:16 33.673813 -117.872191 118 60ft 0kts
14-Apr-18 16:17 33.674712 -117.870957 28 60ft 10kts
14-Apr-18 16:18 33.677850 -117.868964 26 60ft 15kts
14-Apr-18 16:19 33.681068 -117.867119 29 60ft 7kts
14-Apr-18 16:20 33.681282 -117.866542 105 60ft 0kts
14-Apr-18 16:21 33.681282 -117.866542 105 60ft 0kts
14-Apr-18 16:22 33.680029 -117.866118 208 60ft 22kts
14-Apr-18 16:23 33.660967 -117.877581 226 726ft 89kts
14-Apr-18 16:24 33.644600 -117.900239 229 1637ft 92kts
14-Apr-18 16:25 33.627259 -117.923872 230 2539ft 93kts
14-Apr-18 16:26 33.610574 -117.946797 230 3474ft 90kts
14-Apr-18 16:27 33.592957 -117.972008 233 3985ft 124kts
14-Apr-18 16:28 33.607317 -118.014372 300 3965ft 154kts
14-Apr-18 16:29 33.631147 -118.055453 300 3963ft 147kts
14-Apr-18 16:30 33.654552 -118.095592 300 3964ft 145kts
14-Apr-18 16:31 33.677532 -118.135264 300 3971ft 144kts
14-Apr-18 16:32 33.701401 -118.173346 324 3971ft 147kts
14-Apr-18 16:33 33.738402 -118.194426 330 3980ft 147kts
14-Apr-18 16:34 33.775500 -118.215004 330 3982ft 146kts
14-Apr-18 16:35 33.812211 -118.235858 325 3981ft 145kts
14-Apr-18 16:36 33.835074 -118.272820 303 4061ft 137kts
14-Apr-18 16:37 33.859901 -118.309044 312 3984ft 143kts
14-Apr-18 16:38 33.891329 -118.338056 318 3984ft 142kts
14-Apr-18 16:39 33.922009 -118.368336 317 3982ft 143kts
14-Apr-18 16:40 33.952636 -118.398912 317 3982ft 144kts
14-Apr-18 16:41 33.983462 -118.429861 316 3983ft 145kts
14-Apr-18 16:42 34.014750 -118.461005 319 3983ft 147kts
14-Apr-18 16:43 34.048578 -118.488963 322 3985ft 148kts
14-Apr-18 16:44 34.082812 -118.516953 322 3987ft 149kts
14-Apr-18 16:45 34.116665 -118.544837 322 3984ft 147kts
14-Apr-18 16:46 34.149950 -118.573178 322 3982ft 145kts
14-Apr-18 16:47 34.186055 -118.597782 331 3685ft 160kts
14-Apr-18 16:48 34.226461 -118.623463 331 2981ft 158kts
14-Apr-18 16:49 34.258924 -118.628792 90 2922ft 136kts
14-Apr-18 16:50 34.228787 -118.609666 159 2978ft 124kts
14-Apr-18 16:51 34.201338 -118.588382 115 3021ft 121kts
14-Apr-18 16:52 34.202488 -118.548209 86 3018ft 121kts
14-Apr-18 16:53 34.200721 -118.507607 97 3037ft 121kts
14-Apr-18 16:54 34.198274 -118.469430 90 2514ft 105kts
14-Apr-18 16:55 34.199477 -118.434173 86 2030ft 103kts
14-Apr-18 16:56 34.198237 -118.399406 89 1307ft 97kts
14-Apr-18 16:57 34.197930 -118.369869 91 827ft 78kts
14-Apr-18 16:58 34.197504 -118.360374 155 781ft 1kts
14-Apr-18 16:59 34.196861 -118.360215 129 781ft 7kts
14-Apr-18 17:00 34.195694 -118.358681 107 781ft 0kts

Navigation Log

Ident Type
1. KSNA Airport
2. SLI Navaid
3. POPPR Fix
4. SMO Navaid
5. SILEX Fix
6. KBUR Airport